createdAt,value
2019-01-02T00:02:22.968Z,94961.02
2019-01-02T00:04:49.342Z,94959.56
2019-01-02T00:07:15.727Z,94962.70
2019-01-02T00:09:42.122Z,94959.11
2019-01-02T00:12:08.450Z,94964.13
2019-01-02T00:14:34.825Z,94966.42
2019-01-02T00:17:01.204Z,94965.52
2019-01-02T00:19:27.597Z,94965.06
2019-01-02T00:21:53.918Z,94967.25
2019-01-02T00:24:20.286Z,94969.93
2019-01-02T00:26:46.798Z,94961.30
2019-01-02T00:29:13.135Z,94965.46
2019-01-02T00:31:39.529Z,94958.77
2019-01-02T00:34:05.859Z,94961.70
2019-01-02T00:36:32.368Z,94959.51
2019-01-02T00:38:58.644Z,94960.88
2019-01-02T00:41:24.973Z,94963.89
2019-01-02T00:43:51.359Z,94960.53
2019-01-02T00:46:17.732Z,94957.34
2019-01-02T00:48:44.124Z,94959.08
2019-01-02T00:51:10.445Z,94956.32
2019-01-02T00:53:36.865Z,94951.14
2019-01-02T00:56:03.227Z,94946.61
2019-01-02T00:58:29.624Z,94946.73
2019-01-02T01:00:55.980Z,94940.95
2019-01-02T01:03:22.324Z,94941.49
2019-01-02T01:05:48.709Z,94939.36
2019-01-02T01:08:15.047Z,94931.50
2019-01-02T01:10:41.450Z,94927.97
2019-01-02T01:13:07.782Z,94931.76
2019-01-02T01:15:34.169Z,94924.45
2019-01-02T01:18:00.553Z,94919.41
2019-01-02T01:20:26.903Z,94924.84
2019-01-02T01:22:53.286Z,94920.12
2019-01-02T01:25:19.732Z,94913.05
2019-01-02T01:27:46.023Z,94912.92
2019-01-02T01:30:12.411Z,94905.12
2019-01-02T01:32:38.759Z,94900.17
2019-01-02T01:35:05.084Z,94894.87
2019-01-02T01:37:31.530Z,94889.87
2019-01-02T01:39:57.901Z,94883.97
2019-01-02T01:42:24.283Z,94873.98
2019-01-02T01:44:50.615Z,94873.73
2019-01-02T01:47:16.946Z,94866.05
2019-01-02T01:49:43.344Z,94864.39
2019-01-02T01:52:09.666Z,94859.48
2019-01-02T01:54:35.993Z,94857.45
2019-01-02T01:57:02.380Z,94862.41
2019-01-02T01:59:28.726Z,94856.16
2019-01-02T02:01:55.058Z,94857.45
2019-01-02T02:04:21.499Z,94847.82
2019-01-02T02:06:47.939Z,94849.89
2019-01-02T02:09:14.318Z,94843.16
2019-01-02T02:11:40.646Z,94841.26
2019-01-02T02:14:07.032Z,94837.41
2019-01-02T02:16:33.391Z,94831.22
2019-01-02T02:18:59.751Z,94828.23
2019-01-02T02:21:26.114Z,94826.03
2019-01-02T02:23:52.506Z,94823.88
2019-01-02T02:26:21.635Z,94815.97
2019-01-02T02:28:48.033Z,94812.77
2019-01-02T02:31:14.369Z,94810.18
2019-01-02T02:33:40.736Z,94804.14
2019-01-02T02:36:07.064Z,94801.45
2019-01-02T02:38:33.440Z,94799.49
2019-01-02T02:40:59.785Z,94801.97
2019-01-02T02:43:26.173Z,94802.91
2019-01-02T02:45:52.592Z,94804.66
2019-01-02T02:48:18.961Z,94800.86
2019-01-02T02:50:45.289Z,94794.33
2019-01-02T02:53:11.629Z,94794.11
2019-01-02T02:55:37.984Z,94788.98
2019-01-02T02:58:04.297Z,94788.43
2019-01-02T03:00:30.629Z,94786.66
2019-01-02T03:02:56.955Z,94783.54
2019-01-02T03:05:23.288Z,94774.67
2019-01-02T03:07:49.685Z,94775.86
2019-01-02T03:10:16.016Z,94774.95
2019-01-02T03:12:42.386Z,94780.31
2019-01-02T03:15:08.705Z,94764.92
2019-01-02T03:17:35.036Z,94765.53
2019-01-02T03:20:01.371Z,94766.22
2019-01-02T03:22:27.775Z,94768.80
2019-01-02T03:24:54.120Z,94766.46
2019-01-02T03:27:20.448Z,94765.18
2019-01-02T03:29:46.889Z,94773.38
2019-01-02T03:32:13.234Z,94772.20
2019-01-02T03:34:39.685Z,94775.73
2019-01-02T03:37:05.968Z,94773.16
2019-01-02T03:39:32.323Z,94766.63
2019-01-02T03:41:58.686Z,94772.25
2019-01-02T03:44:25.012Z,94771.75
2019-01-02T03:46:51.342Z,94765.24
2019-01-02T03:49:17.749Z,94758.61
2019-01-02T03:51:44.080Z,94759.89
2019-01-02T03:54:10.475Z,94755.22
2019-01-02T03:56:36.845Z,94749.52
2019-01-02T03:59:03.218Z,94752.78
2019-01-02T04:01:29.603Z,94751.98
2019-01-02T04:03:55.956Z,94750.23
2019-01-02T04:06:22.343Z,94749.09
2019-01-02T04:08:48.712Z,94748.27
2019-01-02T04:11:15.051Z,94743.05
2019-01-02T04:13:41.388Z,94735.21
2019-01-02T04:16:07.735Z,94729.16
2019-01-02T04:18:34.205Z,94733.17
2019-01-02T04:21:00.568Z,94728.73
2019-01-02T04:23:26.960Z,94728.63
2019-01-02T04:25:53.291Z,94720.70
2019-01-02T04:28:19.654Z,94720.23
2019-01-02T04:30:46.019Z,94714.52
2019-01-02T04:33:12.386Z,94717.67
2019-01-02T04:35:38.751Z,94718.37
2019-01-02T04:38:07.238Z,94711.02
2019-01-02T04:40:33.577Z,94709.97
2019-01-02T04:42:59.969Z,94705.30
2019-01-02T04:45:26.313Z,94704.96
2019-01-02T04:47:52.650Z,94694.23
2019-01-02T04:50:19.055Z,94699.23
2019-01-02T04:52:45.501Z,94702.53
2019-01-02T04:55:11.853Z,94694.09
2019-01-02T04:57:38.223Z,94700.88
2019-01-02T05:00:04.605Z,94708.35
2019-01-02T05:02:30.987Z,94708.12
2019-01-02T05:04:57.327Z,94709.77
2019-01-02T05:07:23.693Z,94704.86
2019-01-02T05:09:50.111Z,94706.02
2019-01-02T05:12:16.488Z,94709.53
2019-01-02T05:14:42.828Z,94712.80
2019-01-02T05:17:09.163Z,94719.22
2019-01-02T05:19:35.503Z,94715.36
2019-01-02T05:22:01.845Z,94713.38
2019-01-02T05:24:28.245Z,94713.98
2019-01-02T05:26:54.585Z,94711.41
2019-01-02T05:29:20.947Z,94708.48
2019-01-02T05:31:47.337Z,94712.45
2019-01-02T05:34:13.657Z,94711.28
2019-01-02T05:36:40.044Z,94708.83
2019-01-02T05:39:06.384Z,94700.30
2019-01-02T05:41:32.761Z,94696.45
2019-01-02T05:43:59.156Z,94692.50
2019-01-02T05:46:25.489Z,94686.89
2019-01-02T05:48:51.877Z,94684.66
2019-01-02T05:51:18.219Z,94690.97
2019-01-02T05:53:44.582Z,94689.23
2019-01-02T05:56:10.969Z,94688.50
2019-01-02T05:58:37.358Z,94692.12
2019-01-02T06:01:03.716Z,94684.91
2019-01-02T06:03:30.064Z,94682.56
2019-01-02T06:05:56.419Z,94681.04
2019-01-02T06:08:22.750Z,94683.03
2019-01-02T06:10:49.133Z,94685.95
2019-01-02T06:13:15.578Z,94671.02
2019-01-02T06:15:41.938Z,94676.96
2019-01-02T06:18:08.288Z,94660.02
2019-01-02T06:20:34.617Z,94666.66
2019-01-02T06:23:00.949Z,94655.56
2019-01-02T06:25:27.342Z,94650.31
2019-01-02T06:27:53.663Z,94641.09
2019-01-02T06:30:20.117Z,94636.77
2019-01-02T06:32:46.459Z,94653.00
2019-01-02T06:35:12.812Z,94661.41
2019-01-02T06:37:39.191Z,94664.55
2019-01-02T06:40:05.658Z,94666.68
2019-01-02T06:42:32.088Z,94664.31
2019-01-02T06:44:58.441Z,94660.01
2019-01-02T06:47:24.772Z,94672.05
2019-01-02T06:49:51.159Z,94685.14
2019-01-02T06:52:17.562Z,94690.73
2019-01-02T06:54:43.897Z,94699.14
2019-01-02T06:57:10.242Z,94693.16
2019-01-02T06:59:36.616Z,94690.59
2019-01-02T07:02:02.946Z,94686.40
2019-01-02T07:04:29.296Z,94695.86
2019-01-02T07:06:55.697Z,94694.39
2019-01-02T07:09:22.032Z,94707.12
2019-01-02T07:11:49.496Z,94707.97
2019-01-02T07:14:14.742Z,94711.00
2019-01-02T07:16:41.076Z,94716.84
2019-01-02T07:19:07.403Z,94720.09
2019-01-02T07:21:33.797Z,94732.16
2019-01-02T07:24:00.145Z,94724.53
2019-01-02T07:26:26.496Z,94724.65
2019-01-02T07:28:52.876Z,94725.36
2019-01-02T07:31:19.319Z,94723.70
2019-01-02T07:33:45.686Z,94715.53
2019-01-02T07:36:12.097Z,94718.66
2019-01-02T07:38:38.509Z,94722.16
2019-01-02T07:41:04.811Z,94719.02
2019-01-02T07:43:31.167Z,94725.42
2019-01-02T07:45:57.529Z,94726.90
2019-01-02T07:48:23.942Z,94718.84
2019-01-02T07:50:50.261Z,94719.92
2019-01-02T07:53:16.673Z,94714.06
2019-01-02T07:55:43.001Z,94703.37
2019-01-02T07:58:09.396Z,94706.88
2019-01-02T08:00:35.911Z,94708.41
2019-01-02T08:03:02.375Z,94703.08
2019-01-02T08:05:28.657Z,94699.39
2019-01-02T08:07:56.181Z,94705.63
2019-01-02T08:10:21.317Z,94688.38
2019-01-02T08:12:47.748Z,94691.53
2019-01-02T08:15:14.163Z,94682.69
2019-01-02T08:17:40.489Z,94678.02
2019-01-02T08:20:06.828Z,94679.08
2019-01-02T08:22:33.393Z,94682.75
2019-01-02T08:24:59.823Z,94678.89
2019-01-02T08:27:26.260Z,94676.30
2019-01-02T08:29:52.771Z,94663.02
2019-01-02T08:32:19.275Z,94654.66
2019-01-02T08:34:45.632Z,94657.37
2019-01-02T08:37:11.990Z,94673.10
2019-01-02T08:39:38.290Z,94665.47
2019-01-02T08:42:04.670Z,94670.54
2019-01-02T08:44:31.068Z,94669.72
2019-01-02T08:46:57.404Z,94658.86
2019-01-02T08:49:23.786Z,94652.63
2019-01-02T08:51:50.148Z,94653.53
2019-01-02T08:54:16.499Z,94657.52
2019-01-02T08:56:42.854Z,94644.77
2019-01-02T08:59:09.261Z,94632.35
2019-01-02T09:01:35.695Z,94635.55
2019-01-02T09:04:02.048Z,94636.95
2019-01-02T09:06:28.568Z,94635.52
2019-01-02T09:08:54.945Z,94622.19
2019-01-02T09:11:21.328Z,94621.61
2019-01-02T09:13:47.658Z,94617.30
2019-01-02T09:16:14.035Z,94623.66
2019-01-02T09:18:40.320Z,94619.66
2019-01-02T09:21:06.778Z,94615.22
2019-01-02T09:23:33.145Z,94611.32
2019-01-02T09:25:59.502Z,94605.14
2019-01-02T09:28:28.097Z,94605.66
2019-01-02T09:30:54.450Z,94600.06
2019-01-02T09:33:20.851Z,94597.28
2019-01-02T09:35:47.339Z,94582.42
2019-01-02T09:38:13.655Z,94575.84
2019-01-02T09:40:40.083Z,94577.59
2019-01-02T09:43:06.382Z,94576.56
2019-01-02T09:45:32.708Z,94573.69
2019-01-02T09:47:59.083Z,94577.41
2019-01-02T09:50:25.432Z,94572.20
2019-01-02T09:52:51.753Z,94571.97
2019-01-02T09:55:18.156Z,94573.70
2019-01-02T09:57:44.486Z,94567.37
2019-01-02T10:00:10.907Z,94563.86
2019-01-02T10:02:38.897Z,94558.89
2019-01-02T10:05:03.585Z,94548.09
2019-01-02T10:07:29.945Z,94548.37
2019-01-02T10:09:56.420Z,94546.70
2019-01-02T10:12:22.766Z,94539.08
2019-01-02T10:14:49.158Z,94539.69
2019-01-02T10:17:15.449Z,94530.13
2019-01-02T10:19:41.808Z,94527.28
2019-01-02T10:22:08.178Z,94520.39
2019-01-02T10:24:34.500Z,94519.38
2019-01-02T10:27:00.891Z,94513.56
2019-01-02T10:29:27.223Z,94509.22
2019-01-02T10:31:53.551Z,94509.30
2019-01-02T10:34:21.098Z,94506.84
2019-01-02T10:36:46.210Z,94509.49
2019-01-02T10:39:12.562Z,94505.75
2019-01-02T10:41:39.121Z,94505.00
2019-01-02T10:44:05.467Z,94494.76
2019-01-02T10:46:31.866Z,94489.72
2019-01-02T10:48:58.297Z,94490.69
2019-01-02T10:51:24.670Z,94480.84
2019-01-02T10:53:51.071Z,94488.93
2019-01-02T10:56:18.418Z,94487.66
2019-01-02T10:58:43.802Z,94488.13
2019-01-02T11:01:10.204Z,94483.89
2019-01-02T11:03:36.542Z,94481.53
2019-01-02T11:06:02.913Z,94481.73
2019-01-02T11:08:29.372Z,94479.02
2019-01-02T11:10:55.782Z,94478.39
2019-01-02T11:13:22.092Z,94473.23
2019-01-02T11:15:48.461Z,94471.39
2019-01-02T11:18:14.810Z,94472.50
2019-01-02T11:20:41.163Z,94468.69
2019-01-02T11:23:07.536Z,94476.08
2019-01-02T11:25:33.866Z,94476.34
2019-01-02T11:28:00.288Z,94476.56
2019-01-02T11:30:26.668Z,94471.89
2019-01-02T11:32:53.087Z,94475.52
2019-01-02T11:35:19.530Z,94475.95
2019-01-02T11:37:45.961Z,94478.73
2019-01-02T11:40:12.501Z,94473.16
2019-01-02T11:42:38.926Z,94467.11
2019-01-02T11:45:05.355Z,94468.73
2019-01-02T11:47:31.749Z,94468.17
2019-01-02T11:49:59.931Z,94463.12
2019-01-02T11:52:30.896Z,94451.33
2019-01-02T11:54:57.278Z,94442.39
2019-01-02T11:57:23.633Z,94435.20
2019-01-02T11:59:49.990Z,94431.34
2019-01-02T12:02:16.423Z,94418.94
2019-01-02T12:04:42.767Z,94422.08
2019-01-02T12:07:10.124Z,94421.36
2019-01-02T12:09:36.524Z,94412.08
2019-01-02T12:12:02.863Z,94411.26
2019-01-02T12:14:29.232Z,94419.28
2019-01-02T12:16:57.792Z,94425.16
2019-01-02T12:19:24.124Z,94406.06
2019-01-02T12:21:50.469Z,94415.06
2019-01-02T12:24:17.971Z,94412.92
2019-01-02T12:26:44.322Z,94415.34
2019-01-02T12:29:10.654Z,94415.88
2019-01-02T12:31:37.041Z,94416.42
2019-01-02T12:34:03.416Z,94415.73
2019-01-02T12:36:29.868Z,94413.73
2019-01-02T12:38:56.259Z,94408.67
2019-01-02T12:41:22.670Z,94418.47
2019-01-02T12:43:49.085Z,94416.20
2019-01-02T12:46:15.538Z,94420.10
2019-01-02T12:48:41.896Z,94419.00
2019-01-02T12:51:08.374Z,94410.97
2019-01-02T12:53:34.783Z,94411.03
2019-01-02T12:56:01.137Z,94409.21
2019-01-02T12:58:27.474Z,94409.50
2019-01-02T13:00:53.823Z,94408.92
2019-01-02T13:03:20.186Z,94413.11
2019-01-02T13:05:46.545Z,94413.65
2019-01-02T13:08:12.950Z,94410.50
2019-01-02T13:10:39.309Z,94406.50
2019-01-02T13:13:05.742Z,94404.42
2019-01-02T13:15:32.085Z,94408.64
2019-01-02T13:17:58.823Z,94401.19
2019-01-02T13:20:25.164Z,94405.31
2019-01-02T13:22:51.519Z,94399.80
2019-01-02T13:25:18.327Z,94396.52
2019-01-02T13:27:45.171Z,94399.64
2019-01-02T13:30:11.530Z,94394.98
2019-01-02T13:32:37.920Z,94396.27
2019-01-02T13:35:04.269Z,94395.48
2019-01-02T13:37:30.655Z,94395.74
2019-01-02T13:39:57.113Z,94398.52
2019-01-02T13:42:23.508Z,94397.85
2019-01-02T13:44:49.980Z,94409.59
2019-01-02T13:47:16.825Z,94410.25
2019-01-02T13:49:43.181Z,94413.33
2019-01-02T13:52:09.522Z,94414.94
2019-01-02T13:54:35.906Z,94416.42
